Time;durP1;ratioP1;P1;durP2;ratioP2;P2;SDS_P1;SDS_P2;PMS_P1;PMS_P2;Temp;Humidity;BMP_temperature;BMP_pressure;BME280_temperature;BME280_humidity;BME280_pressure;Samples;Min_cycle;Max_cycle;Signal;HPM_P1;HPM_P2
2021/08/13 00:00:34;;;;;;;4.53;3.97;;;25.20;99.90;;;;;;4954199;29;20031;-70
2021/08/13 00:03:00;;;;;;;4.47;3.50;;;25.10;99.90;;;;;;4953949;29;20472;-70
2021/08/13 00:05:25;;;;;;;4.57;3.67;;;25.10;99.90;;;;;;4954142;29;20491;-70
2021/08/13 00:07:51;;;;;;;4.47;3.70;;;25.10;99.90;;;;;;4953965;29;20058;-70
2021/08/13 00:10:17;;;;;;;4.65;3.53;;;25.10;99.90;;;;;;4954443;29;20034;-69
2021/08/13 00:12:42;;;;;;;4.88;3.72;;;25.10;99.90;;;;;;4953942;29;20038;-69
2021/08/13 00:15:09;;;;;;;4.35;3.83;;;25.10;99.90;;;;;;4953468;28;20023;-69
2021/08/13 00:17:35;;;;;;;3.95;3.50;;;25.10;99.90;;;;;;4953941;29;20023;-69
2021/08/13 00:20:01;;;;;;;4.53;3.95;;;25.10;99.90;;;;;;4953622;29;20046;-70
2021/08/13 00:22:26;;;;;;;4.10;3.38;;;25.10;99.90;;;;;;4953977;29;20047;-70
2021/08/13 00:24:52;;;;;;;4.50;3.80;;;25.10;99.90;;;;;;4953690;29;20447;-70
2021/08/13 00:27:18;;;;;;;5.28;3.65;;;25.00;99.90;;;;;;4954172;29;20023;-69
2021/08/13 00:29:44;;;;;;;4.18;3.38;;;25.10;99.90;;;;;;4953738;29;20028;-70
2021/08/13 00:32:09;;;;;;;3.88;3.47;;;25.00;99.90;;;;;;4953526;29;20086;-70
2021/08/13 00:34:35;;;;;;;4.68;3.45;;;25.00;99.90;;;;;;4953723;29;20443;-70
2021/08/13 00:37:00;;;;;;;4.60;3.70;;;25.00;99.90;;;;;;4953527;29;20150;-70
2021/08/13 00:39:26;;;;;;;3.97;3.58;;;25.00;99.90;;;;;;4953688;29;20106;-70
2021/08/13 00:41:52;;;;;;;4.25;3.55;;;25.00;99.90;;;;;;4953196;29;20115;-70
2021/08/13 00:44:17;;;;;;;4.07;3.50;;;25.00;99.90;;;;;;4953854;29;20024;-69
2021/08/13 00:46:43;;;;;;;4.55;3.58;;;25.00;99.90;;;;;;4953495;29;20081;-69
2021/08/13 00:49:09;;;;;;;4.28;3.60;;;25.00;99.90;;;;;;4953219;29;20098;-70
2021/08/13 00:51:35;;;;;;;5.10;4.00;;;25.00;99.90;;;;;;4953482;29;20099;-70
2021/08/13 00:54:01;;;;;;;4.30;3.40;;;24.90;99.90;;;;;;4953264;29;20420;-70
2021/08/13 00:56:26;;;;;;;4.28;3.50;;;24.90;99.90;;;;;;4936317;29;20078;-70
2021/08/13 00:58:52;;;;;;;4.00;3.10;;;24.90;99.90;;;;;;4953246;29;20031;-70
2021/08/13 01:01:19;;;;;;;4.10;3.40;;;24.90;99.90;;;;;;4953588;29;20043;-69
2021/08/13 01:03:46;;;;;;;5.15;3.30;;;24.90;99.90;;;;;;4953354;29;20031;-69
2021/08/13 01:06:13;;;;;;;3.83;3.30;;;24.90;99.90;;;;;;4953307;29;20453;-70
2021/08/13 01:08:41;;;;;;;3.53;3.22;;;24.90;99.90;;;;;;4953211;29;20035;-70
2021/08/13 01:11:27;;;;;;;4.05;3.50;;;24.90;99.90;;;;;;4953133;29;20028;-70
2021/08/13 01:13:59;;;;;;;3.60;3.22;;;24.90;99.90;;;;;;4953080;29;20078;-70
2021/08/13 01:16:26;;;;;;;4.25;3.50;;;24.90;99.90;;;;;;4953367;29;20059;-70
2021/08/13 01:19:04;;;;;;;3.70;3.05;;;24.90;99.90;;;;;;4952868;29;20114;-70
2021/08/13 01:21:48;;;;;;;4.63;3.17;;;24.80;99.90;;;;;;4953338;29;20043;-69
2021/08/13 01:24:20;;;;;;;3.58;2.97;;;24.90;99.90;;;;;;4952993;29;20419;-69
2021/08/13 01:27:04;;;;;;;3.95;3.20;;;24.80;99.90;;;;;;4953796;28;20027;-70
2021/08/13 01:29:29;;;;;;;;;;;24.80;99.90;;;;;;4957467;29;20098;-70
2021/08/13 01:32:10;;;;;;;3.60;3.20;;;24.80;99.90;;;;;;4956720;29;19917;-70
2021/08/13 01:34:40;;;;;;;5.35;3.53;;;24.80;99.90;;;;;;4956749;29;20027;-70
2021/08/13 01:37:07;;;;;;;3.40;3.10;;;24.80;99.90;;;;;;4956588;29;20051;-69
2021/08/13 01:39:34;;;;;;;4.55;3.67;;;24.80;99.90;;;;;;4956804;29;20034;-69
2021/08/13 01:42:00;;;;;;;3.70;3.10;;;24.80;99.90;;;;;;4956585;29;20043;-68
2021/08/13 01:44:26;;;;;;;3.85;3.00;;;24.70;99.90;;;;;;4956695;29;20078;-69
2021/08/13 01:46:55;;;;;;;3.80;3.00;;;24.70;99.90;;;;;;4956448;29;20039;-69
2021/08/13 01:49:21;;;;;;;3.50;3.03;;;24.70;99.90;;;;;;4956555;29;20491;-70
2021/08/13 01:51:48;;;;;;;4.85;3.40;;;24.70;99.90;;;;;;4956975;29;20074;-69
2021/08/13 01:54:15;;;;;;;3.70;3.05;;;24.70;99.90;;;;;;4956314;29;20174;-70
2021/08/13 01:56:42;;;;;;;4.05;3.13;;;24.70;99.90;;;;;;4956549;29;20024;-70
2021/08/13 01:59:08;;;;;;;5.00;3.22;;;24.70;99.90;;;;;;4956284;29;20030;-70
2021/08/13 02:01:34;;;;;;;4.85;3.50;;;24.70;99.90;;;;;;4956420;29;20039;-70
2021/08/13 02:04:01;;;;;;;3.72;3.33;;;24.70;99.90;;;;;;4956001;29;20030;-69
2021/08/13 02:06:30;;;;;;;3.20;2.90;;;24.70;99.90;;;;;;4956618;29;20446;-70
2021/08/13 02:08:56;;;;;;;3.22;2.83;;;24.70;99.90;;;;;;4956082;29;20086;-70
2021/08/13 02:11:23;;;;;;;4.30;3.40;;;24.70;99.90;;;;;;4956329;29;20028;-70
2021/08/13 02:13:49;;;;;;;4.20;3.13;;;24.70;99.90;;;;;;4956404;29;20055;-69
2021/08/13 02:16:19;;;;;;;3.55;3.13;;;24.70;99.90;;;;;;4955964;29;20514;-69
2021/08/13 02:18:51;;;;;;;3.40;2.85;;;24.70;99.90;;;;;;4956113;29;20034;-70
2021/08/13 02:21:18;;;;;;;4.00;3.20;;;24.70;99.90;;;;;;4956651;29;20051;-70
2021/08/13 02:23:44;;;;;;;3.05;2.75;;;24.60;99.90;;;;;;4956032;29;20025;-70
2021/08/13 02:26:09;;;;;;;3.92;3.30;;;24.60;99.90;;;;;;4955827;29;20098;-71
2021/08/13 02:28:35;;;;;;;4.40;3.38;;;24.60;99.90;;;;;;4955869;29;20050;-70
2021/08/13 02:31:01;;;;;;;3.80;3.10;;;24.60;99.90;;;;;;4955644;29;20500;-70
2021/08/13 02:33:27;;;;;;;3.90;3.38;;;24.60;99.90;;;;;;4955847;29;20062;-71
2021/08/13 02:36:02;;;;;;;3.17;2.88;;;24.60;99.90;;;;;;4955645;29;20400;-70
2021/08/13 02:38:32;;;;;;;3.72;3.33;;;24.60;99.90;;;;;;4955439;28;20530;-70
2021/08/13 02:41:03;;;;;;;3.10;2.80;;;24.60;99.90;;;;;;4955589;29;20480;-70
2021/08/13 02:43:55;;;;;;;4.28;3.35;;;24.60;99.90;;;;;;4955576;29;20361;-71
2021/08/13 02:46:22;;;;;;;3.75;2.78;;;24.60;99.90;;;;;;4938563;29;20031;-71
2021/08/13 02:48:50;;;;;;;3.58;2.90;;;24.50;99.90;;;;;;4955863;29;20043;-71
2021/08/13 02:51:17;;;;;;;3.00;2.70;;;24.50;99.90;;;;;;4955921;29;20031;-70
2021/08/13 02:53:46;;;;;;;3.65;3.08;;;24.50;99.90;;;;;;4955517;29;20158;-72
2021/08/13 02:56:14;;;;;;;4.10;3.25;;;24.50;99.90;;;;;;4955287;29;20039;-69
2021/08/13 02:58:46;;;;;;;3.13;2.83;;;24.50;99.90;;;;;;4955528;29;20029;-72
2021/08/13 03:01:18;;;;;;;2.90;2.60;;;24.50;99.90;;;;;;4955001;29;20112;-72
2021/08/13 03:03:44;;;;;;;3.38;2.78;;;24.50;99.90;;;;;;4955342;29;20480;-71
2021/08/13 03:06:17;;;;;;;3.22;2.80;;;24.50;99.90;;;;;;4955066;29;20038;-71
2021/08/13 03:08:45;;;;;;;3.30;3.00;;;24.40;99.90;;;;;;4955232;29;20535;-72
2021/08/13 03:11:12;;;;;;;3.53;3.05;;;24.40;99.90;;;;;;4955125;29;20047;-72
2021/08/13 03:13:39;;;;;;;3.13;2.70;;;24.40;99.90;;;;;;4955208;29;20027;-72
2021/08/13 03:16:06;;;;;;;3.53;3.20;;;24.40;99.90;;;;;;4954916;29;20058;-71
2021/08/13 03:18:32;;;;;;;4.43;3.05;;;24.40;99.90;;;;;;4955126;29;20082;-71
2021/08/13 03:20:58;;;;;;;3.47;2.70;;;24.40;99.90;;;;;;4954626;29;20118;-71
2021/08/13 03:23:25;;;;;;;3.50;3.17;;;24.40;99.90;;;;;;4954924;29;20059;-71
2021/08/13 03:25:51;;;;;;;3.25;2.83;;;24.40;99.90;;;;;;4950410;28;20076;-71
2021/08/13 03:28:17;;;;;;;4.00;3.28;;;24.40;99.90;;;;;;4974146;28;20053;-72
2021/08/13 03:30:44;;;;;;;3.13;2.80;;;24.40;99.90;;;;;;4974297;28;20430;-71
2021/08/13 03:33:12;;;;;;;4.38;2.78;;;24.40;99.90;;;;;;4973762;28;20018;-71
2021/08/13 03:35:39;;;;;;;3.75;3.13;;;24.30;99.90;;;;;;4973942;28;20031;-71
2021/08/13 03:38:05;;;;;;;4.10;3.38;;;24.30;99.90;;;;;;4973982;28;20089;-71
2021/08/13 03:40:31;;;;;;;3.30;2.65;;;24.30;99.90;;;;;;4973577;28;20084;-71
2021/08/13 03:42:57;;;;;;;3.38;2.65;;;24.30;99.90;;;;;;4973874;28;20490;-71
2021/08/13 03:45:22;;;;;;;3.55;2.75;;;24.30;99.90;;;;;;4973568;28;20561;-71
2021/08/13 03:47:48;;;;;;;2.78;2.50;;;24.30;99.90;;;;;;4973906;28;20383;-71
2021/08/13 03:50:14;;;;;;;4.05;2.95;;;24.30;99.90;;;;;;4972593;28;20395;-71
2021/08/13 03:52:39;;;;;;;3.38;2.72;;;24.30;99.90;;;;;;4973660;28;20064;-71
2021/08/13 03:55:05;;;;;;;3.83;2.88;;;24.30;99.90;;;;;;4973611;28;20027;-71
2021/08/13 03:57:31;;;;;;;3.47;2.70;;;24.30;99.90;;;;;;4973215;28;20027;-71
2021/08/13 03:59:57;;;;;;;3.65;2.78;;;24.20;99.90;;;;;;4973524;28;20539;-71
2021/08/13 04:02:22;;;;;;;2.97;2.67;;;24.20;99.90;;;;;;4973192;28;20027;-71
2021/08/13 04:04:48;;;;;;;5.20;3.08;;;24.20;99.90;;;;;;4973687;28;20027;-71
2021/08/13 04:07:14;;;;;;;3.17;2.72;;;24.20;99.90;;;;;;4973144;28;20078;-71
2021/08/13 04:09:39;;;;;;;3.00;2.70;;;24.20;99.90;;;;;;4973286;28;20062;-71
2021/08/13 04:12:05;;;;;;;2.85;2.40;;;24.20;99.90;;;;;;4973156;28;20027;-71
2021/08/13 04:14:31;;;;;;;3.17;2.88;;;24.20;99.90;;;;;;4955733;28;20118;-70
2021/08/13 04:16:57;;;;;;;2.95;2.70;;;24.20;99.90;;;;;;4973282;28;20543;-71
2021/08/13 04:19:23;;;;;;;3.03;2.67;;;24.20;99.90;;;;;;4973085;28;20031;-71
2021/08/13 04:21:49;;;;;;;3.28;2.90;;;24.10;99.90;;;;;;4973399;28;20043;-71
2021/08/13 04:24:14;;;;;;;3.10;2.70;;;24.10;99.90;;;;;;4972871;28;20039;-71
2021/08/13 04:26:40;;;;;;;4.90;2.75;;;24.10;99.90;;;;;;4973131;28;20105;-71
2021/08/13 04:29:06;;;;;;;4.20;2.60;;;24.10;99.90;;;;;;4973044;28;20059;-71
2021/08/13 04:31:31;;;;;;;3.40;2.78;;;24.10;99.90;;;;;;4972902;28;20043;-71
2021/08/13 04:33:57;;;;;;;3.08;2.80;;;24.10;99.90;;;;;;4972789;28;20057;-72
2021/08/13 04:36:22;;;;;;;3.13;2.83;;;24.10;99.90;;;;;;4973015;28;20027;-72
2021/08/13 04:38:48;;;;;;;4.32;3.00;;;24.10;99.90;;;;;;4972894;28;20156;-71
2021/08/13 04:41:14;;;;;;;3.30;2.70;;;24.10;99.90;;;;;;4972575;28;20063;-71
2021/08/13 04:43:39;;;;;;;3.00;2.70;;;24.10;99.90;;;;;;4972963;28;20433;-71
2021/08/13 04:46:05;;;;;;;3.05;2.58;;;24.10;99.90;;;;;;4972981;28;20129;-72
2021/08/13 04:48:30;;;;;;;3.15;2.75;;;24.00;99.90;;;;;;4972356;28;20485;-71
2021/08/13 04:50:56;;;;;;;3.67;2.85;;;24.00;99.90;;;;;;4972925;28;20110;-72
2021/08/13 04:53:22;;;;;;;3.03;2.72;;;24.00;99.90;;;;;;4972801;28;20030;-72
2021/08/13 04:55:47;;;;;;;3.75;2.88;;;24.00;99.90;;;;;;4972740;28;20030;-72
2021/08/13 04:58:13;;;;;;;3.28;2.67;;;24.00;99.90;;;;;;4972293;28;20031;-72
2021/08/13 05:00:39;;;;;;;3.20;2.60;;;24.00;99.90;;;;;;4972471;28;20041;-72
2021/08/13 05:03:08;;;;;;;3.42;2.70;;;24.00;99.90;;;;;;4972547;28;20033;-72
2021/08/13 05:05:34;;;;;;;3.53;2.90;;;24.00;99.90;;;;;;4972504;28;20026;-72
2021/08/13 05:07:59;;;;;;;2.88;2.58;;;24.00;99.90;;;;;;4972588;28;20037;-72
2021/08/13 05:10:25;;;;;;;2.70;2.50;;;24.00;99.90;;;;;;4972534;28;20019;-72
2021/08/13 05:12:51;;;;;;;3.28;2.67;;;24.00;99.90;;;;;;4972866;28;20031;-72
2021/08/13 05:15:16;;;;;;;2.90;2.30;;;24.00;99.90;;;;;;4972287;28;20379;-71
2021/08/13 05:17:42;;;;;;;3.30;2.63;;;24.00;99.90;;;;;;4972523;28;20072;-71
2021/08/13 05:20:10;;;;;;;3.15;2.65;;;24.00;99.90;;;;;;4972570;28;20046;-71
2021/08/13 05:22:36;;;;;;;3.13;2.40;;;24.00;99.90;;;;;;4972484;28;20035;-72
2021/08/13 05:25:07;;;;;;;2.50;2.22;;;24.00;99.90;;;;;;4972509;28;20027;-72
2021/08/13 05:27:34;;;;;;;3.33;2.50;;;24.00;99.90;;;;;;4972430;28;20043;-72
2021/08/13 05:30:00;;;;;;;2.85;2.42;;;23.90;99.90;;;;;;4972328;28;20357;-72
2021/08/13 05:32:27;;;;;;;3.10;2.53;;;24.00;99.90;;;;;;4972507;28;20034;-72
2021/08/13 05:34:52;;;;;;;2.70;2.30;;;23.90;99.90;;;;;;4972519;28;20034;-71
2021/08/13 05:37:18;;;;;;;2.90;2.50;;;23.90;99.90;;;;;;4972112;28;20027;-71
2021/08/13 05:39:44;;;;;;;2.53;2.33;;;23.90;99.90;;;;;;4972407;28;20038;-71
2021/08/13 05:42:10;;;;;;;2.67;2.30;;;23.90;99.90;;;;;;4971879;28;20035;-71
2021/08/13 05:44:36;;;;;;;4.05;2.53;;;23.90;99.90;;;;;;4972299;28;20039;-71
2021/08/13 05:47:01;;;;;;;2.65;2.20;;;23.90;99.90;;;;;;4972321;28;20029;-71
2021/08/13 05:49:27;;;;;;;3.00;2.47;;;23.90;99.90;;;;;;4971866;28;20415;-71
2021/08/13 05:51:52;;;;;;;3.10;2.30;;;23.90;99.90;;;;;;4972577;28;20369;-71
2021/08/13 05:54:18;;;;;;;3.20;2.20;;;23.90;99.90;;;;;;4972007;28;20023;-71
2021/08/13 05:56:44;;;;;;;3.30;2.58;;;23.90;99.90;;;;;;4972251;28;20575;-71
2021/08/13 05:59:09;;;;;;;2.65;2.38;;;23.90;99.90;;;;;;4954646;28;20034;-71
2021/08/13 06:01:35;;;;;;;2.75;2.15;;;23.80;99.90;;;;;;4972196;28;20475;-71
2021/08/13 06:04:00;;;;;;;2.65;2.40;;;23.90;99.90;;;;;;4972162;28;20098;-71
2021/08/13 06:06:27;;;;;;;3.05;2.58;;;23.80;99.90;;;;;;4972046;28;20031;-72
2021/08/13 06:08:53;;;;;;;3.90;2.55;;;23.80;99.90;;;;;;4972408;28;20073;-71
2021/08/13 06:11:18;;;;;;;3.95;2.55;;;23.80;99.90;;;;;;4971932;28;20026;-71
2021/08/13 06:13:44;;;;;;;4.05;2.40;;;23.80;99.90;;;;;;4973675;28;20027;-71
2021/08/13 06:16:10;;;;;;;3.25;2.10;;;23.80;99.90;;;;;;4975250;28;20026;-71
2021/08/13 06:18:36;;;;;;;2.90;2.60;;;23.90;99.90;;;;;;4975496;28;20426;-72
2021/08/13 06:21:02;;;;;;;2.95;2.50;;;23.90;99.90;;;;;;4975240;28;20042;-71
2021/08/13 06:23:28;;;;;;;2.65;2.10;;;23.90;99.90;;;;;;4975334;28;20158;-71
2021/08/13 06:25:54;;;;;;;2.72;2.38;;;23.90;99.90;;;;;;4975470;28;20040;-71
2021/08/13 06:28:19;;;;;;;2.78;2.28;;;23.90;99.90;;;;;;4975027;28;20089;-71
2021/08/13 06:30:45;;;;;;;2.78;2.38;;;23.90;99.90;;;;;;4975280;28;20037;-71
2021/08/13 06:33:10;;;;;;;4.07;2.40;;;23.90;99.90;;;;;;4975146;28;20118;-71
2021/08/13 06:35:36;;;;;;;2.78;2.47;;;23.90;99.90;;;;;;4975151;28;20386;-71
2021/08/13 06:38:02;;;;;;;2.80;2.40;;;24.00;99.90;;;;;;4975179;28;20101;-71
2021/08/13 06:40:32;;;;;;;2.85;2.20;;;24.00;99.90;;;;;;4975090;28;20030;-71
2021/08/13 06:42:57;;;;;;;2.85;2.35;;;24.00;99.90;;;;;;4975108;28;20042;-71
2021/08/13 06:45:23;;;;;;;2.30;2.00;;;24.00;99.90;;;;;;4974617;28;20023;-71
2021/08/13 06:47:50;;;;;;;3.25;2.20;;;24.10;99.90;;;;;;4974729;28;20473;-71
2021/08/13 06:50:16;;;;;;;2.75;2.15;;;24.10;99.90;;;;;;4974564;28;20062;-71
2021/08/13 06:52:42;;;;;;;2.30;2.00;;;24.10;99.90;;;;;;4974661;28;20031;-71
2021/08/13 06:55:09;;;;;;;2.60;2.13;;;24.10;99.90;;;;;;4974746;28;20066;-71
2021/08/13 06:57:35;;;;;;;2.75;2.10;;;24.20;99.90;;;;;;4974632;28;20360;-71
2021/08/13 07:00:11;;;;;;;2.40;1.90;;;24.20;99.90;;;;;;4974815;28;20175;-71
2021/08/13 07:02:37;;;;;;;3.15;2.15;;;24.20;99.90;;;;;;4974923;28;20027;-71
2021/08/13 07:05:03;;;;;;;2.45;2.10;;;24.20;99.90;;;;;;4974177;28;20081;-70
2021/08/13 07:07:31;;;;;;;2.22;2.03;;;24.20;99.90;;;;;;4973487;28;20082;-70
2021/08/13 07:09:57;;;;;;;2.30;1.80;;;24.20;99.90;;;;;;4962523;28;20038;-70
2021/08/13 07:12:23;;;;;;;2.35;2.10;;;24.20;99.90;;;;;;4974179;28;20031;-69
2021/08/13 07:14:48;;;;;;;3.20;2.10;;;24.20;99.90;;;;;;4973834;28;20027;-69
2021/08/13 07:17:14;;;;;;;4.60;2.10;;;24.20;99.90;;;;;;4973648;28;20045;-70
2021/08/13 07:19:40;;;;;;;5.55;2.42;;;24.20;99.90;;;;;;4974005;28;20027;-71
2021/08/13 07:22:05;;;;;;;4.72;2.42;;;24.20;99.90;;;;;;4973618;28;20094;-72
2021/08/13 07:24:31;;;;;;;8.48;2.67;;;24.30;99.90;;;;;;4972594;28;20439;-70
2021/08/13 07:26:57;;;;;;;5.82;3.05;;;24.30;99.90;;;;;;4974352;28;20038;-70
2021/08/13 07:29:24;;;;;;;4.55;2.47;;;24.30;99.90;;;;;;4973507;28;20494;-70
2021/08/13 07:31:50;;;;;;;4.78;2.42;;;24.20;99.90;;;;;;4943985;28;20031;-70
2021/08/13 07:34:15;;;;;;;4.43;2.35;;;24.20;99.90;;;;;;4969473;28;20037;-72
2021/08/13 07:36:41;;;;;;;4.15;2.50;;;24.10;99.90;;;;;;4965812;28;20503;-69
2021/08/13 07:39:06;;;;;;;4.88;2.67;;;24.10;99.90;;;;;;4963454;28;20046;-69
2021/08/13 07:41:32;;;;;;;4.63;2.42;;;24.00;99.90;;;;;;4962690;28;20038;-69
2021/08/13 07:43:58;;;;;;;6.07;2.83;;;24.10;99.90;;;;;;4964854;28;20031;-69
2021/08/13 07:46:23;;;;;;;5.60;2.75;;;24.10;99.90;;;;;;4960834;28;20526;-69
2021/08/13 07:48:49;;;;;;;4.40;2.35;;;24.00;99.90;;;;;;4961595;28;20444;-69
2021/08/13 07:51:15;;;;;;;5.95;2.60;;;24.10;99.90;;;;;;4969646;28;20031;-69
2021/08/13 07:53:40;;;;;;;4.70;2.67;;;24.00;99.90;;;;;;4957181;28;20050;-69
2021/08/13 07:56:06;;;;;;;5.85;2.33;;;24.00;99.90;;;;;;4963230;28;20039;-68
2021/08/13 07:58:32;;;;;;;6.07;2.55;;;24.00;99.90;;;;;;4963080;28;20489;-68
2021/08/13 08:00:57;;;;;;;6.07;2.33;;;24.00;99.90;;;;;;4963239;28;20429;-69
2021/08/13 08:03:23;;;;;;;3.92;2.33;;;24.00;99.90;;;;;;4962591;28;20034;-69
2021/08/13 08:05:48;;;;;;;4.82;2.50;;;24.10;99.90;;;;;;4961574;28;20098;-69
2021/08/13 08:08:14;;;;;;;6.13;2.78;;;24.10;99.90;;;;;;4962341;28;20023;-69
2021/08/13 08:10:45;;;;;;;6.75;2.80;;;24.10;99.90;;;;;;4963461;28;20097;-69
2021/08/13 08:13:12;;;;;;;6.28;2.83;;;24.10;99.90;;;;;;4973333;28;20031;-70
2021/08/13 08:15:38;;;;;;;5.15;2.67;;;24.10;99.90;;;;;;4965540;28;20023;-69
2021/08/13 08:18:04;;;;;;;4.55;2.22;;;24.10;99.90;;;;;;4961676;28;20035;-69
2021/08/13 08:20:29;;;;;;;4.28;2.45;;;24.10;99.90;;;;;;4945319;28;20049;-69
2021/08/13 08:22:55;;;;;;;6.15;2.83;;;24.10;99.90;;;;;;4960984;28;20031;-69
2021/08/13 08:25:20;;;;;;;4.50;2.40;;;24.00;99.90;;;;;;4963007;28;20034;-69
2021/08/13 08:27:46;;;;;;;4.20;2.25;;;24.00;99.90;;;;;;4961647;28;20019;-69
2021/08/13 08:30:12;;;;;;;4.40;2.22;;;23.90;99.90;;;;;;4962150;28;20019;-69
2021/08/13 08:32:38;;;;;;;6.35;2.58;;;23.90;99.90;;;;;;4961980;28;20027;-68
2021/08/13 08:35:04;;;;;;;5.53;2.85;;;23.90;99.90;;;;;;4960593;28;20118;-69
2021/08/13 08:37:30;;;;;;;6.53;2.70;;;23.90;99.90;;;;;;4963219;28;20046;-69
2021/08/13 08:39:55;;;;;;;6.97;2.50;;;23.90;99.90;;;;;;4966339;28;20031;-68
2021/08/13 08:42:21;;;;;;;4.03;2.30;;;23.90;99.90;;;;;;4964602;28;20440;-69
2021/08/13 08:44:48;;;;;;;4.85;2.30;;;23.90;99.90;;;;;;4958047;28;20020;-69
2021/08/13 08:47:16;;;;;;;4.30;2.65;;;23.90;99.90;;;;;;4964878;28;20113;-69
2021/08/13 08:49:43;;;;;;;4.95;2.30;;;23.90;99.90;;;;;;4972406;28;20039;-69
2021/08/13 08:52:10;;;;;;;5.35;2.45;;;23.90;99.90;;;;;;4955645;28;20023;-69
2021/08/13 08:54:38;;;;;;;4.57;2.35;;;23.90;99.90;;;;;;4972746;28;20558;-69
2021/08/13 08:57:05;;;;;;;5.65;2.63;;;23.90;99.90;;;;;;4972672;28;20035;-69
2021/08/13 08:59:31;;;;;;;7.40;2.50;;;24.00;99.90;;;;;;4968355;28;20397;-68
2021/08/13 09:01:58;;;;;;;6.13;2.70;;;23.90;99.90;;;;;;4973219;28;20042;-69
2021/08/13 09:04:24;;;;;;;4.20;2.25;;;24.00;99.90;;;;;;4972473;28;20486;-69
2021/08/13 09:06:50;;;;;;;8.40;2.70;;;24.00;99.90;;;;;;4966400;28;20118;-69
2021/08/13 09:09:16;;;;;;;5.65;2.67;;;24.00;99.90;;;;;;4953068;28;20507;-70
2021/08/13 09:11:42;;;;;;;6.18;2.40;;;24.00;99.90;;;;;;4953431;29;20030;-72
2021/08/13 09:14:10;;;;;;;3.75;2.20;;;24.10;99.90;;;;;;4953310;29;20495;-68
2021/08/13 09:16:37;;;;;;;5.90;2.50;;;24.10;99.90;;;;;;4953655;28;20407;-71
2021/08/13 09:19:05;;;;;;;6.38;2.72;;;24.20;99.90;;;;;;4972402;28;20510;-72
2021/08/13 09:21:33;;;;;;;7.10;2.35;;;24.20;99.90;;;;;;4972457;28;20038;-68
2021/08/13 09:24:00;;;;;;;7.22;2.22;;;24.20;99.90;;;;;;4955420;28;20036;-72
2021/08/13 09:26:27;;;;;;;6.80;2.78;;;24.20;99.90;;;;;;4960231;28;20034;-75
2021/08/13 09:28:58;;;;;;;7.80;2.83;;;24.30;99.90;;;;;;4971942;28;20018;-75
2021/08/13 09:31:27;;;;;;;7.75;3.05;;;24.30;99.90;;;;;;4971835;28;20027;-74
2021/08/13 09:33:56;;;;;;;8.27;2.85;;;24.40;99.90;;;;;;4971596;28;20027;-74
2021/08/13 09:36:24;;;;;;;7.15;2.60;;;24.40;99.90;;;;;;4967962;28;20082;-70
2021/08/13 09:39:05;;;;;;;6.65;2.53;;;24.40;99.90;;;;;;4956855;28;20089;-74
2021/08/13 09:41:44;;;;;;;6.45;2.63;;;24.40;99.90;;;;;;4971947;28;20057;-72
2021/08/13 09:44:10;;;;;;;9.15;2.50;;;24.40;99.90;;;;;;4970933;28;20026;-70
2021/08/13 09:46:36;;;;;;;6.88;2.35;;;24.40;99.90;;;;;;4970887;28;20027;-76
2021/08/13 09:49:15;;;;;;;5.70;2.45;;;24.50;99.90;;;;;;4966846;28;20402;-73
2021/08/13 09:51:41;;;;;;;4.38;2.42;;;24.40;99.90;;;;;;4959017;28;20022;-72
2021/08/13 09:54:08;;;;;;;7.95;2.80;;;24.50;99.90;;;;;;4975183;28;20034;-76
2021/08/13 09:56:36;;;;;;;5.38;2.25;;;24.50;99.90;;;;;;4975515;28;20022;-72
2021/08/13 09:59:13;;;;;;;5.80;3.00;;;24.50;99.90;;;;;;4975692;28;20117;-75
2021/08/13 10:01:40;;;;;;;5.47;2.70;;;24.50;99.90;;;;;;4975109;28;20038;-73
2021/08/13 10:04:06;;;;;;;5.15;2.50;;;24.50;99.90;;;;;;4974929;28;20069;-72
2021/08/13 10:06:34;;;;;;;5.10;2.47;;;24.50;99.90;;;;;;4974586;28;20030;-75
2021/08/13 10:09:00;;;;;;;5.57;2.60;;;24.60;99.90;;;;;;4975245;28;20023;-72
2021/08/13 10:11:25;;;;;;;4.97;2.40;;;24.50;99.90;;;;;;4974637;28;20030;-76
2021/08/13 10:13:51;;;;;;;5.18;2.47;;;24.60;99.90;;;;;;4974882;28;20062;-76
2021/08/13 10:16:22;;;;;;;5.13;2.40;;;24.60;99.90;;;;;;4974625;28;20026;-75
2021/08/13 10:18:55;;;;;;;4.22;2.33;;;24.60;99.90;;;;;;4974926;28;20542;-75
2021/08/13 10:21:22;;;;;;;4.20;2.30;;;24.60;99.90;;;;;;4974800;28;20044;-74
2021/08/13 10:23:52;;;;;;;4.88;2.35;;;24.70;99.90;;;;;;4974658;28;20487;-75
2021/08/13 10:26:22;;;;;;;4.78;2.67;;;24.70;99.90;;;;;;4974368;28;20031;-74
2021/08/13 10:28:50;;;;;;;4.78;2.40;;;24.70;99.90;;;;;;4975117;28;20046;-74
2021/08/13 10:31:18;;;;;;;4.32;2.42;;;24.70;99.90;;;;;;4974395;28;20058;-77
2021/08/13 10:33:45;;;;;;;6.45;2.72;;;24.70;99.90;;;;;;4974471;28;20495;-77
2021/08/13 10:36:15;;;;;;;3.67;2.17;;;24.80;99.90;;;;;;4974188;28;20402;-74
2021/08/13 10:38:42;;;;;;;4.35;2.20;;;24.80;99.90;;;;;;4974486;28;20023;-77
2021/08/13 10:41:09;;;;;;;4.68;2.17;;;24.90;99.90;;;;;;4974336;28;20046;-78
2021/08/13 10:43:38;;;;;;;4.30;2.20;;;24.90;99.90;;;;;;4974970;28;20054;-76
2021/08/13 10:46:07;;;;;;;5.60;2.50;;;24.90;99.90;;;;;;4974723;28;20422;-72
2021/08/13 10:48:37;;;;;;;5.78;2.55;;;25.00;99.90;;;;;;4974347;28;20031;-76
2021/08/13 10:51:04;;;;;;;4.07;2.30;;;25.00;99.90;;;;;;4974747;28;20027;-76
2021/08/13 10:53:32;;;;;;;5.07;2.38;;;25.00;99.90;;;;;;4974063;28;20360;-78
2021/08/13 10:55:59;;;;;;;5.60;2.60;;;25.00;99.90;;;;;;4956775;28;20033;-76
2021/08/13 10:58:37;;;;;;;4.07;2.53;;;25.10;99.90;;;;;;4974141;28;20029;-79
2021/08/13 11:01:11;;;;;;;3.85;2.60;;;25.10;99.90;;;;;;4974307;28;20510;-75
2021/08/13 11:03:39;;;;;;;4.10;2.40;;;25.00;99.90;;;;;;4974115;28;20030;-77
2021/08/13 11:06:05;;;;;;;4.25;2.35;;;25.00;99.90;;;;;;4974062;28;20122;-76
2021/08/13 11:08:40;;;;;;;5.78;2.63;;;25.00;99.90;;;;;;4974231;28;20027;-74
2021/08/13 11:11:15;;;;;;;3.10;2.40;;;25.00;99.90;;;;;;4974116;28;20488;-75
2021/08/13 11:13:47;;;;;;;3.60;2.17;;;25.00;99.90;;;;;;4973952;28;20557;-76
2021/08/13 11:16:24;;;;;;;3.90;2.47;;;25.00;99.90;;;;;;4973557;28;20540;-79
2021/08/13 11:18:57;;;;;;;3.95;2.28;;;25.00;99.90;;;;;;4963962;28;20357;-74
2021/08/13 11:21:35;;;;;;;6.53;2.45;;;25.00;99.90;;;;;;4936834;29;20074;-77
2021/08/13 11:24:06;;;;;;;5.13;2.60;;;25.00;99.90;;;;;;4954311;28;20102;-78
2021/08/13 11:26:50;;;;;;;3.90;2.13;;;25.00;99.90;;;;;;4954609;28;20094;-77
2021/08/13 11:29:27;;;;;;;;;;;25.00;99.90;;;;;;4954377;28;20031;-76
2021/08/13 11:31:58;;;;;;;4.32;2.38;;;25.00;99.90;;;;;;4954074;28;20434;-76
2021/08/13 11:34:52;;;;;;;3.72;2.45;;;25.10;99.90;;;;;;4957695;28;20094;-75
2021/08/13 11:37:43;;;;;;;4.60;2.15;;;25.10;99.90;;;;;;4973143;28;20022;-72
2021/08/13 11:40:12;;;;;;;5.32;2.58;;;25.10;99.90;;;;;;4972137;28;20062;-77
2021/08/13 11:42:45;;;;;;;4.47;2.42;;;25.10;99.90;;;;;;4968271;28;20488;-74
2021/08/13 11:45:11;;;;;;;4.13;2.47;;;25.10;99.90;;;;;;4953650;28;20024;-73
2021/08/13 11:47:37;;;;;;;5.05;2.35;;;25.10;99.90;;;;;;4956351;28;20027;-76
2021/08/13 11:50:08;;;;;;;5.55;2.45;;;25.10;99.90;;;;;;4969717;28;20523;-75
2021/08/13 11:52:36;;;;;;;5.45;2.80;;;25.10;99.90;;;;;;4953885;28;20475;-77
2021/08/13 11:55:20;;;;;;;4.18;2.13;;;25.20;99.90;;;;;;4971249;28;20039;-73
2021/08/13 11:57:46;;;;;;;4.60;2.40;;;25.30;99.90;;;;;;4973215;28;20027;-73
2021/08/13 12:00:26;;;;;;;5.28;2.50;;;25.30;99.90;;;;;;4972907;28;20356;-73
2021/08/13 12:03:03;;;;;;;4.47;2.30;;;25.30;99.90;;;;;;4973123;28;20041;-73
2021/08/13 12:05:34;;;;;;;3.67;2.40;;;25.40;99.90;;;;;;4972882;28;20450;-77
2021/08/13 12:08:03;;;;;;;3.83;2.20;;;25.40;99.90;;;;;;4956648;28;20027;-74
2021/08/13 12:10:31;;;;;;;4.22;2.22;;;25.40;99.90;;;;;;4954518;28;20101;-77
2021/08/13 12:12:57;;;;;;;4.18;2.45;;;25.50;99.90;;;;;;4964171;28;20047;-75
2021/08/13 12:15:30;;;;;;;4.70;2.35;;;25.50;99.90;;;;;;4953932;28;20035;-78
2021/08/13 12:17:56;;;;;;;4.28;2.55;;;25.50;99.90;;;;;;4956873;28;20027;-76
2021/08/13 12:20:22;;;;;;;4.78;2.30;;;25.50;99.90;;;;;;4969654;28;20041;-77
2021/08/13 12:22:48;;;;;;;3.08;1.85;;;25.50;99.90;;;;;;4961694;28;20018;-79
2021/08/13 12:25:14;;;;;;;3.78;2.20;;;25.60;99.90;;;;;;4972065;28;20027;-75
2021/08/13 12:27:42;;;;;;;5.05;2.25;;;25.60;99.90;;;;;;4972912;28;20085;-79
2021/08/13 12:30:20;;;;;;;6.28;2.58;;;25.60;99.90;;;;;;4972379;28;20026;-75
2021/08/13 12:32:47;;;;;;;6.68;3.83;;;25.70;99.90;;;;;;4972547;28;20475;-77
2021/08/13 12:35:14;;;;;;;8.00;4.90;;;25.70;99.90;;;;;;4972314;28;20038;-74
2021/08/13 12:37:41;;;;;;;5.70;3.60;;;25.70;99.90;;;;;;4972440;28;20062;-75
2021/08/13 12:40:10;;;;;;;5.45;2.80;;;25.70;99.90;;;;;;4970608;28;20030;-77
2021/08/13 12:42:36;;;;;;;6.38;3.38;;;25.70;99.90;;;;;;4970907;28;20034;-76
2021/08/13 12:45:08;;;;;;;6.07;3.28;;;25.80;99.90;;;;;;4964065;28;20035;-77
2021/08/13 12:47:34;;;;;;;5.22;3.38;;;25.80;99.90;;;;;;4941841;29;20039;-80
2021/08/13 12:50:00;;;;;;;5.60;3.35;;;25.80;99.90;;;;;;4952916;28;20781;-80